sensor_id;sensor_type;location;lat;lon;timestamp;P1;durP1;ratioP1;P2;durP2;ratioP2
43998;SDS011;51319;52.162;5.302;2023-07-22T00:00:05;13.30;;;8.93;;
43998;SDS011;51319;52.162;5.302;2023-07-22T00:02:32;16.38;;;9.50;;
43998;SDS011;51319;52.162;5.302;2023-07-22T00:04:59;14.90;;;8.63;;
43998;SDS011;51319;52.162;5.302;2023-07-22T00:07:26;16.23;;;8.70;;
43998;SDS011;51319;52.162;5.302;2023-07-22T00:09:53;18.17;;;9.27;;
43998;SDS011;51319;52.162;5.302;2023-07-22T00:12:20;13.57;;;9.35;;
43998;SDS011;51319;52.162;5.302;2023-07-22T00:14:52;19.05;;;10.23;;
43998;SDS011;51319;52.162;5.302;2023-07-22T00:17:21;14.75;;;10.02;;
43998;SDS011;51319;52.162;5.302;2023-07-22T00:19:50;17.02;;;10.07;;
43998;SDS011;51319;52.162;5.302;2023-07-22T00:22:26;17.90;;;9.98;;
43998;SDS011;51319;52.162;5.302;2023-07-22T00:24:53;16.00;;;9.82;;
43998;SDS011;51319;52.162;5.302;2023-07-22T00:27:20;13.98;;;9.30;;
43998;SDS011;51319;52.162;5.302;2023-07-22T00:29:47;14.82;;;9.40;;
43998;SDS011;51319;52.162;5.302;2023-07-22T00:32:14;15.77;;;9.43;;
43998;SDS011;51319;52.162;5.302;2023-07-22T00:34:41;14.15;;;9.77;;
43998;SDS011;51319;52.162;5.302;2023-07-22T00:37:08;16.35;;;9.02;;
43998;SDS011;51319;52.162;5.302;2023-07-22T00:39:53;15.25;;;9.45;;
43998;SDS011;51319;52.162;5.302;2023-07-22T00:42:21;19.42;;;10.02;;
43998;SDS011;51319;52.162;5.302;2023-07-22T00:44:49;16.33;;;10.07;;
43998;SDS011;51319;52.162;5.302;2023-07-22T00:47:16;18.35;;;10.65;;
43998;SDS011;51319;52.162;5.302;2023-07-22T00:49:43;19.60;;;10.75;;
43998;SDS011;51319;52.162;5.302;2023-07-22T00:52:13;17.20;;;11.00;;
43998;SDS011;51319;52.162;5.302;2023-07-22T00:54:40;18.80;;;11.30;;
43998;SDS011;51319;52.162;5.302;2023-07-22T00:57:08;22.30;;;11.35;;
43998;SDS011;51319;52.162;5.302;2023-07-22T00:59:36;22.33;;;11.82;;
43998;SDS011;51319;52.162;5.302;2023-07-22T01:02:04;22.33;;;11.77;;
43998;SDS011;51319;52.162;5.302;2023-07-22T01:04:33;18.70;;;11.93;;
43998;SDS011;51319;52.162;5.302;2023-07-22T01:07:01;16.08;;;11.35;;
43998;SDS011;51319;52.162;5.302;2023-07-22T01:09:36;20.85;;;12.00;;
43998;SDS011;51319;52.162;5.302;2023-07-22T01:12:04;22.77;;;11.80;;
43998;SDS011;51319;52.162;5.302;2023-07-22T01:14:36;18.23;;;11.00;;
43998;SDS011;51319;52.162;5.302;2023-07-22T01:17:04;17.90;;;10.70;;
43998;SDS011;51319;52.162;5.302;2023-07-22T01:19:34;19.20;;;12.00;;
43998;SDS011;51319;52.162;5.302;2023-07-22T01:22:02;22.55;;;12.35;;
43998;SDS011;51319;52.162;5.302;2023-07-22T01:24:32;18.17;;;11.27;;
43998;SDS011;51319;52.162;5.302;2023-07-22T01:26:59;19.58;;;10.80;;
43998;SDS011;51319;52.162;5.302;2023-07-22T01:29:26;22.27;;;12.35;;
43998;SDS011;51319;52.162;5.302;2023-07-22T01:31:54;22.00;;;11.82;;
43998;SDS011;51319;52.162;5.302;2023-07-22T01:34:22;18.42;;;11.63;;
43998;SDS011;51319;52.162;5.302;2023-07-22T01:36:51;20.30;;;12.32;;
43998;SDS011;51319;52.162;5.302;2023-07-22T01:39:18;22.80;;;12.45;;
43998;SDS011;51319;52.162;5.302;2023-07-22T01:41:46;22.60;;;11.57;;
43998;SDS011;51319;52.162;5.302;2023-07-22T01:44:14;19.63;;;12.27;;
43998;SDS011;51319;52.162;5.302;2023-07-22T01:46:41;21.80;;;12.57;;
43998;SDS011;51319;52.162;5.302;2023-07-22T01:49:12;21.02;;;12.75;;
43998;SDS011;51319;52.162;5.302;2023-07-22T01:51:39;24.25;;;12.70;;
43998;SDS011;51319;52.162;5.302;2023-07-22T01:54:06;22.55;;;12.63;;
43998;SDS011;51319;52.162;5.302;2023-07-22T01:56:38;22.30;;;12.63;;
43998;SDS011;51319;52.162;5.302;2023-07-22T01:59:06;21.55;;;12.63;;
43998;SDS011;51319;52.162;5.302;2023-07-22T02:01:33;25.90;;;12.60;;
43998;SDS011;51319;52.162;5.302;2023-07-22T02:04:00;22.25;;;12.90;;
43998;SDS011;51319;52.162;5.302;2023-07-22T02:06:27;22.10;;;12.70;;
43998;SDS011;51319;52.162;5.302;2023-07-22T02:08:56;29.08;;;14.02;;
43998;SDS011;51319;52.162;5.302;2023-07-22T02:11:23;25.88;;;13.88;;
43998;SDS011;51319;52.162;5.302;2023-07-22T02:13:50;27.00;;;14.52;;
43998;SDS011;51319;52.162;5.302;2023-07-22T02:16:17;26.85;;;14.98;;
43998;SDS011;51319;52.162;5.302;2023-07-22T02:18:48;29.50;;;15.25;;
43998;SDS011;51319;52.162;5.302;2023-07-22T02:21:15;29.08;;;16.50;;
43998;SDS011;51319;52.162;5.302;2023-07-22T02:23:42;32.15;;;16.65;;
43998;SDS011;51319;52.162;5.302;2023-07-22T02:26:09;29.13;;;16.13;;
43998;SDS011;51319;52.162;5.302;2023-07-22T02:28:36;30.38;;;16.52;;
43998;SDS011;51319;52.162;5.302;2023-07-22T02:31:03;39.90;;;18.35;;
43998;SDS011;51319;52.162;5.302;2023-07-22T02:33:33;28.63;;;16.80;;
43998;SDS011;51319;52.162;5.302;2023-07-22T02:36:00;31.60;;;17.98;;
43998;SDS011;51319;52.162;5.302;2023-07-22T02:38:27;30.67;;;17.67;;
43998;SDS011;51319;52.162;5.302;2023-07-22T02:40:54;30.33;;;16.58;;
43998;SDS011;51319;52.162;5.302;2023-07-22T02:43:39;29.88;;;16.38;;
43998;SDS011;51319;52.162;5.302;2023-07-22T02:46:10;28.92;;;16.90;;
43998;SDS011;51319;52.162;5.302;2023-07-22T02:48:37;32.22;;;18.08;;
43998;SDS011;51319;52.162;5.302;2023-07-22T02:51:09;35.95;;;17.30;;
43998;SDS011;51319;52.162;5.302;2023-07-22T02:53:39;36.78;;;18.45;;
43998;SDS011;51319;52.162;5.302;2023-07-22T02:56:07;32.50;;;17.92;;
43998;SDS011;51319;52.162;5.302;2023-07-22T02:58:40;32.58;;;18.63;;
43998;SDS011;51319;52.162;5.302;2023-07-22T03:01:08;33.13;;;17.88;;
43998;SDS011;51319;52.162;5.302;2023-07-22T03:03:39;31.42;;;17.75;;
43998;SDS011;51319;52.162;5.302;2023-07-22T03:06:07;31.15;;;17.42;;
43998;SDS011;51319;52.162;5.302;2023-07-22T03:08:36;28.52;;;17.02;;
43998;SDS011;51319;52.162;5.302;2023-07-22T03:11:03;34.40;;;18.92;;
43998;SDS011;51319;52.162;5.302;2023-07-22T03:13:30;33.72;;;18.27;;
43998;SDS011;51319;52.162;5.302;2023-07-22T03:15:57;29.30;;;16.90;;
43998;SDS011;51319;52.162;5.302;2023-07-22T03:18:24;35.15;;;17.83;;
43998;SDS011;51319;52.162;5.302;2023-07-22T03:21:00;29.58;;;16.45;;
43998;SDS011;51319;52.162;5.302;2023-07-22T03:23:27;32.70;;;18.08;;
43998;SDS011;51319;52.162;5.302;2023-07-22T03:25:54;34.00;;;17.90;;
43998;SDS011;51319;52.162;5.302;2023-07-22T03:28:22;33.42;;;18.60;;
43998;SDS011;51319;52.162;5.302;2023-07-22T03:30:56;35.92;;;18.77;;
43998;SDS011;51319;52.162;5.302;2023-07-22T03:33:23;31.63;;;17.85;;
43998;SDS011;51319;52.162;5.302;2023-07-22T03:35:50;32.85;;;18.40;;
43998;SDS011;51319;52.162;5.302;2023-07-22T03:38:17;33.88;;;18.27;;
43998;SDS011;51319;52.162;5.302;2023-07-22T03:40:44;31.58;;;18.42;;
43998;SDS011;51319;52.162;5.302;2023-07-22T03:43:11;30.42;;;18.15;;
43998;SDS011;51319;52.162;5.302;2023-07-22T03:45:38;31.90;;;17.40;;
43998;SDS011;51319;52.162;5.302;2023-07-22T03:48:05;32.00;;;17.85;;
43998;SDS011;51319;52.162;5.302;2023-07-22T03:50:32;30.02;;;16.85;;
43998;SDS011;51319;52.162;5.302;2023-07-22T03:52:59;26.67;;;15.80;;
43998;SDS011;51319;52.162;5.302;2023-07-22T03:55:26;32.08;;;16.25;;
43998;SDS011;51319;52.162;5.302;2023-07-22T03:57:53;28.30;;;16.23;;
43998;SDS011;51319;52.162;5.302;2023-07-22T04:00:20;29.65;;;16.20;;
43998;SDS011;51319;52.162;5.302;2023-07-22T04:02:48;28.20;;;15.13;;
43998;SDS011;51319;52.162;5.302;2023-07-22T04:05:15;29.73;;;16.10;;
43998;SDS011;51319;52.162;5.302;2023-07-22T04:07:43;27.95;;;16.23;;
43998;SDS011;51319;52.162;5.302;2023-07-22T04:10:11;29.33;;;15.50;;
43998;SDS011;51319;52.162;5.302;2023-07-22T04:12:38;26.38;;;15.05;;
43998;SDS011;51319;52.162;5.302;2023-07-22T04:15:08;28.40;;;16.13;;
43998;SDS011;51319;52.162;5.302;2023-07-22T04:17:36;28.10;;;15.45;;
43998;SDS011;51319;52.162;5.302;2023-07-22T04:20:04;28.73;;;16.38;;
43998;SDS011;51319;52.162;5.302;2023-07-22T04:22:33;28.73;;;15.70;;
43998;SDS011;51319;52.162;5.302;2023-07-22T04:25:00;27.40;;;15.40;;
43998;SDS011;51319;52.162;5.302;2023-07-22T04:27:27;25.40;;;15.23;;
43998;SDS011;51319;52.162;5.302;2023-07-22T04:29:55;23.38;;;13.88;;
43998;SDS011;51319;52.162;5.302;2023-07-22T04:32:22;27.77;;;16.58;;
43998;SDS011;51319;52.162;5.302;2023-07-22T04:34:49;28.35;;;15.23;;
43998;SDS011;51319;52.162;5.302;2023-07-22T04:37:16;24.05;;;14.77;;
43998;SDS011;51319;52.162;5.302;2023-07-22T04:39:46;26.27;;;15.57;;
43998;SDS011;51319;52.162;5.302;2023-07-22T04:42:16;26.02;;;14.60;;
43998;SDS011;51319;52.162;5.302;2023-07-22T04:44:43;26.92;;;14.77;;
43998;SDS011;51319;52.162;5.302;2023-07-22T04:47:10;28.42;;;15.45;;
43998;SDS011;51319;52.162;5.302;2023-07-22T04:49:37;26.23;;;15.75;;
43998;SDS011;51319;52.162;5.302;2023-07-22T04:52:05;26.55;;;15.00;;
43998;SDS011;51319;52.162;5.302;2023-07-22T04:54:33;28.63;;;15.48;;
43998;SDS011;51319;52.162;5.302;2023-07-22T04:57:00;27.05;;;16.38;;
43998;SDS011;51319;52.162;5.302;2023-07-22T04:59:27;29.92;;;16.45;;
43998;SDS011;51319;52.162;5.302;2023-07-22T05:01:58;33.97;;;17.17;;
43998;SDS011;51319;52.162;5.302;2023-07-22T05:04:25;30.33;;;16.20;;
43998;SDS011;51319;52.162;5.302;2023-07-22T05:06:52;28.75;;;17.08;;
43998;SDS011;51319;52.162;5.302;2023-07-22T05:09:18;29.08;;;17.00;;
43998;SDS011;51319;52.162;5.302;2023-07-22T05:11:45;32.55;;;17.85;;
43998;SDS011;51319;52.162;5.302;2023-07-22T05:14:13;30.73;;;17.95;;
43998;SDS011;51319;52.162;5.302;2023-07-22T05:16:43;33.13;;;18.45;;
43998;SDS011;51319;52.162;5.302;2023-07-22T05:19:10;31.67;;;17.52;;
43998;SDS011;51319;52.162;5.302;2023-07-22T05:21:37;34.83;;;17.98;;
43998;SDS011;51319;52.162;5.302;2023-07-22T05:24:04;32.20;;;18.48;;
43998;SDS011;51319;52.162;5.302;2023-07-22T05:26:31;34.20;;;18.45;;
43998;SDS011;51319;52.162;5.302;2023-07-22T05:28:58;35.08;;;19.33;;
43998;SDS011;51319;52.162;5.302;2023-07-22T05:31:25;35.33;;;18.83;;
43998;SDS011;51319;52.162;5.302;2023-07-22T05:33:52;36.72;;;18.98;;
43998;SDS011;51319;52.162;5.302;2023-07-22T05:36:19;31.20;;;18.42;;
43998;SDS011;51319;52.162;5.302;2023-07-22T05:38:47;32.85;;;18.98;;
43998;SDS011;51319;52.162;5.302;2023-07-22T05:41:14;37.45;;;19.83;;
43998;SDS011;51319;52.162;5.302;2023-07-22T05:43:41;34.38;;;18.38;;
43998;SDS011;51319;52.162;5.302;2023-07-22T05:46:08;34.40;;;20.20;;
43998;SDS011;51319;52.162;5.302;2023-07-22T05:48:35;34.78;;;18.45;;
43998;SDS011;51319;52.162;5.302;2023-07-22T05:51:02;38.78;;;19.48;;
43998;SDS011;51319;52.162;5.302;2023-07-22T05:53:30;39.63;;;18.67;;
43998;SDS011;51319;52.162;5.302;2023-07-22T05:55:59;38.60;;;19.45;;
43998;SDS011;51319;52.162;5.302;2023-07-22T05:58:26;38.03;;;19.25;;
43998;SDS011;51319;52.162;5.302;2023-07-22T06:00:53;38.10;;;19.77;;
43998;SDS011;51319;52.162;5.302;2023-07-22T06:03:20;40.58;;;18.85;;
43998;SDS011;51319;52.162;5.302;2023-07-22T06:05:51;37.50;;;19.95;;
43998;SDS011;51319;52.162;5.302;2023-07-22T06:08:18;40.10;;;19.70;;
43998;SDS011;51319;52.162;5.302;2023-07-22T06:10:47;36.75;;;19.38;;
43998;SDS011;51319;52.162;5.302;2023-07-22T06:13:14;33.90;;;19.33;;
43998;SDS011;51319;52.162;5.302;2023-07-22T06:15:41;33.20;;;19.30;;
43998;SDS011;51319;52.162;5.302;2023-07-22T06:18:08;38.63;;;19.73;;
43998;SDS011;51319;52.162;5.302;2023-07-22T06:20:35;37.22;;;19.67;;
43998;SDS011;51319;52.162;5.302;2023-07-22T06:23:02;34.55;;;19.15;;
43998;SDS011;51319;52.162;5.302;2023-07-22T06:25:30;44.70;;;20.50;;
43998;SDS011;51319;52.162;5.302;2023-07-22T06:27:57;36.75;;;18.77;;
43998;SDS011;51319;52.162;5.302;2023-07-22T06:30:24;32.50;;;18.13;;
43998;SDS011;51319;52.162;5.302;2023-07-22T06:32:51;37.47;;;19.73;;
43998;SDS011;51319;52.162;5.302;2023-07-22T06:35:18;31.17;;;19.38;;
43998;SDS011;51319;52.162;5.302;2023-07-22T06:37:45;33.50;;;19.48;;
43998;SDS011;51319;52.162;5.302;2023-07-22T06:40:12;35.10;;;19.65;;
43998;SDS011;51319;52.162;5.302;2023-07-22T06:42:39;33.45;;;19.38;;
43998;SDS011;51319;52.162;5.302;2023-07-22T06:45:06;33.50;;;18.13;;
43998;SDS011;51319;52.162;5.302;2023-07-22T06:47:33;30.17;;;17.38;;
43998;SDS011;51319;52.162;5.302;2023-07-22T06:50:03;29.98;;;17.52;;
43998;SDS011;51319;52.162;5.302;2023-07-22T06:52:31;34.95;;;18.38;;
43998;SDS011;51319;52.162;5.302;2023-07-22T06:54:58;33.33;;;17.50;;
43998;SDS011;51319;52.162;5.302;2023-07-22T06:57:26;28.30;;;16.65;;
43998;SDS011;51319;52.162;5.302;2023-07-22T06:59:53;35.22;;;17.98;;
43998;SDS011;51319;52.162;5.302;2023-07-22T07:02:40;28.00;;;15.90;;
43998;SDS011;51319;52.162;5.302;2023-07-22T07:05:07;28.35;;;17.00;;
43998;SDS011;51319;52.162;5.302;2023-07-22T07:07:35;32.70;;;17.27;;
43998;SDS011;51319;52.162;5.302;2023-07-22T07:10:02;29.13;;;17.20;;
43998;SDS011;51319;52.162;5.302;2023-07-22T07:12:29;45.80;;;23.52;;
43998;SDS011;51319;52.162;5.302;2023-07-22T07:14:56;28.85;;;16.88;;
43998;SDS011;51319;52.162;5.302;2023-07-22T07:17:23;27.88;;;16.52;;
43998;SDS011;51319;52.162;5.302;2023-07-22T07:19:50;32.28;;;16.33;;
43998;SDS011;51319;52.162;5.302;2023-07-22T07:22:17;31.80;;;16.58;;
43998;SDS011;51319;52.162;5.302;2023-07-22T07:24:44;32.20;;;16.85;;
43998;SDS011;51319;52.162;5.302;2023-07-22T07:27:11;34.50;;;17.85;;
43998;SDS011;51319;52.162;5.302;2023-07-22T07:29:38;26.05;;;16.55;;
43998;SDS011;51319;52.162;5.302;2023-07-22T07:32:20;28.35;;;17.17;;
43998;SDS011;51319;52.162;5.302;2023-07-22T07:34:47;30.27;;;16.85;;
43998;SDS011;51319;52.162;5.302;2023-07-22T07:37:14;33.15;;;18.45;;
43998;SDS011;51319;52.162;5.302;2023-07-22T07:39:41;33.83;;;18.60;;
43998;SDS011;51319;52.162;5.302;2023-07-22T07:42:08;162.55;;;99.35;;
43998;SDS011;51319;52.162;5.302;2023-07-22T07:44:35;72.55;;;40.13;;
43998;SDS011;51319;52.162;5.302;2023-07-22T07:47:03;33.15;;;19.65;;
43998;SDS011;51319;52.162;5.302;2023-07-22T07:49:31;24.77;;;16.75;;
43998;SDS011;51319;52.162;5.302;2023-07-22T07:51:59;30.60;;;16.23;;
43998;SDS011;51319;52.162;5.302;2023-07-22T07:54:26;30.73;;;15.90;;
43998;SDS011;51319;52.162;5.302;2023-07-22T08:02:22;24.75;;;13.65;;
43998;SDS011;51319;52.162;5.302;2023-07-22T08:04:48;21.77;;;12.68;;
43998;SDS011;51319;52.162;5.302;2023-07-22T08:07:16;20.45;;;13.13;;
43998;SDS011;51319;52.162;5.302;2023-07-22T08:09:43;26.60;;;13.27;;
43998;SDS011;51319;52.162;5.302;2023-07-22T08:14:41;24.15;;;14.65;;
43998;SDS011;51319;52.162;5.302;2023-07-22T08:17:08;22.90;;;12.43;;
43998;SDS011;51319;52.162;5.302;2023-07-22T08:19:35;19.33;;;11.68;;
43998;SDS011;51319;52.162;5.302;2023-07-22T08:22:02;16.02;;;11.30;;
43998;SDS011;51319;52.162;5.302;2023-07-22T08:24:29;22.40;;;11.80;;
43998;SDS011;51319;52.162;5.302;2023-07-22T08:26:56;14.85;;;10.15;;
43998;SDS011;51319;52.162;5.302;2023-07-22T08:29:23;16.55;;;9.15;;
43998;SDS011;51319;52.162;5.302;2023-07-22T08:31:51;15.43;;;9.07;;
43998;SDS011;51319;52.162;5.302;2023-07-22T08:34:18;20.10;;;8.68;;
43998;SDS011;51319;52.162;5.302;2023-07-22T08:36:45;14.93;;;8.50;;
43998;SDS011;51319;52.162;5.302;2023-07-22T08:39:12;14.50;;;7.80;;
43998;SDS011;51319;52.162;5.302;2023-07-22T08:41:39;16.30;;;8.60;;
43998;SDS011;51319;52.162;5.302;2023-07-22T08:44:11;13.00;;;7.93;;
43998;SDS011;51319;52.162;5.302;2023-07-22T08:46:42;10.63;;;6.80;;
43998;SDS011;51319;52.162;5.302;2023-07-22T08:49:11;15.15;;;7.50;;
43998;SDS011;51319;52.162;5.302;2023-07-22T08:51:38;15.57;;;8.25;;
43998;SDS011;51319;52.162;5.302;2023-07-22T08:54:06;18.00;;;8.85;;
43998;SDS011;51319;52.162;5.302;2023-07-22T08:56:38;13.65;;;7.55;;
43998;SDS011;51319;52.162;5.302;2023-07-22T08:59:06;14.35;;;8.07;;
43998;SDS011;51319;52.162;5.302;2023-07-22T09:01:33;11.85;;;7.22;;
43998;SDS011;51319;52.162;5.302;2023-07-22T09:04:03;28.77;;;15.75;;
43998;SDS011;51319;52.162;5.302;2023-07-22T09:06:31;15.43;;;7.28;;
43998;SDS011;51319;52.162;5.302;2023-07-22T09:09:02;14.55;;;9.07;;
43998;SDS011;51319;52.162;5.302;2023-07-22T09:11:34;11.73;;;6.43;;
43998;SDS011;51319;52.162;5.302;2023-07-22T09:14:02;10.82;;;7.32;;
43998;SDS011;51319;52.162;5.302;2023-07-22T09:16:34;12.68;;;6.40;;
43998;SDS011;51319;52.162;5.302;2023-07-22T09:19:03;11.68;;;6.45;;
43998;SDS011;51319;52.162;5.302;2023-07-22T09:21:32;9.55;;;5.82;;
43998;SDS011;51319;52.162;5.302;2023-07-22T09:24:04;11.02;;;6.10;;
43998;SDS011;51319;52.162;5.302;2023-07-22T09:26:50;11.98;;;6.68;;
43998;SDS011;51319;52.162;5.302;2023-07-22T09:29:18;12.68;;;6.88;;
43998;SDS011;51319;52.162;5.302;2023-07-22T09:31:58;12.48;;;6.07;;
43998;SDS011;51319;52.162;5.302;2023-07-22T09:34:25;11.05;;;5.88;;
43998;SDS011;51319;52.162;5.302;2023-07-22T09:36:53;14.05;;;7.38;;
43998;SDS011;51319;52.162;5.302;2023-07-22T09:39:21;11.25;;;6.53;;
43998;SDS011;51319;52.162;5.302;2023-07-22T09:41:50;13.07;;;5.75;;
43998;SDS011;51319;52.162;5.302;2023-07-22T09:44:19;10.43;;;5.80;;
43998;SDS011;51319;52.162;5.302;2023-07-22T09:46:46;17.55;;;8.93;;
43998;SDS011;51319;52.162;5.302;2023-07-22T09:49:16;15.95;;;8.52;;
43998;SDS011;51319;52.162;5.302;2023-07-22T09:51:44;11.98;;;6.50;;
43998;SDS011;51319;52.162;5.302;2023-07-22T09:54:27;14.52;;;6.78;;
43998;SDS011;51319;52.162;5.302;2023-07-22T09:56:57;14.38;;;8.07;;
43998;SDS011;51319;52.162;5.302;2023-07-22T09:59:24;15.25;;;6.80;;
43998;SDS011;51319;52.162;5.302;2023-07-22T10:01:55;12.25;;;6.47;;
43998;SDS011;51319;52.162;5.302;2023-07-22T10:04:27;13.15;;;7.60;;
43998;SDS011;51319;52.162;5.302;2023-07-22T10:06:58;12.68;;;9.93;;
43998;SDS011;51319;52.162;5.302;2023-07-22T10:09:25;12.93;;;6.43;;
43998;SDS011;51319;52.162;5.302;2023-07-22T10:11:54;20.55;;;13.75;;
43998;SDS011;51319;52.162;5.302;2023-07-22T10:14:22;14.13;;;7.78;;
43998;SDS011;51319;52.162;5.302;2023-07-22T10:16:49;46.65;;;22.38;;
43998;SDS011;51319;52.162;5.302;2023-07-22T10:19:18;12.07;;;5.15;;
43998;SDS011;51319;52.162;5.302;2023-07-22T10:21:46;11.85;;;4.78;;
43998;SDS011;51319;52.162;5.302;2023-07-22T10:24:13;16.77;;;6.90;;
43998;SDS011;51319;52.162;5.302;2023-07-22T10:26:41;10.05;;;4.40;;
43998;SDS011;51319;52.162;5.302;2023-07-22T10:29:14;9.02;;;3.88;;
43998;SDS011;51319;52.162;5.302;2023-07-22T10:31:41;9.13;;;3.63;;
43998;SDS011;51319;52.162;5.302;2023-07-22T10:34:09;6.95;;;3.67;;
43998;SDS011;51319;52.162;5.302;2023-07-22T10:36:36;8.05;;;3.83;;
43998;SDS011;51319;52.162;5.302;2023-07-22T10:39:03;10.30;;;3.55;;
43998;SDS011;51319;52.162;5.302;2023-07-22T10:41:32;8.52;;;3.63;;
43998;SDS011;51319;52.162;5.302;2023-07-22T10:44:04;11.35;;;4.30;;
43998;SDS011;51319;52.162;5.302;2023-07-22T10:46:37;9.10;;;5.88;;
43998;SDS011;51319;52.162;5.302;2023-07-22T10:49:09;14.70;;;4.65;;
43998;SDS011;51319;52.162;5.302;2023-07-22T10:51:40;15.18;;;7.50;;
43998;SDS011;51319;52.162;5.302;2023-07-22T10:54:31;22.50;;;14.88;;
43998;SDS011;51319;52.162;5.302;2023-07-22T10:57:03;5.57;;;3.63;;
43998;SDS011;51319;52.162;5.302;2023-07-22T10:59:51;13.15;;;3.47;;
43998;SDS011;51319;52.162;5.302;2023-07-22T11:02:25;6.35;;;2.97;;
43998;SDS011;51319;52.162;5.302;2023-07-22T11:04:57;7.13;;;3.33;;
43998;SDS011;51319;52.162;5.302;2023-07-22T11:07:32;7.13;;;3.33;;
43998;SDS011;51319;52.162;5.302;2023-07-22T11:10:11;9.45;;;3.75;;
43998;SDS011;51319;52.162;5.302;2023-07-22T11:12:45;6.28;;;3.30;;
43998;SDS011;51319;52.162;5.302;2023-07-22T11:15:14;6.97;;;2.92;;
43998;SDS011;51319;52.162;5.302;2023-07-22T11:20:30;4.03;;;2.70;;
43998;SDS011;51319;52.162;5.302;2023-07-22T11:23:01;6.32;;;2.45;;
43998;SDS011;51319;52.162;5.302;2023-07-22T11:25:33;6.63;;;2.97;;
43998;SDS011;51319;52.162;5.302;2023-07-22T11:28:00;5.45;;;2.55;;
43998;SDS011;51319;52.162;5.302;2023-07-22T11:30:29;6.20;;;3.35;;
43998;SDS011;51319;52.162;5.302;2023-07-22T11:32:57;6.65;;;3.08;;
43998;SDS011;51319;52.162;5.302;2023-07-22T11:35:27;7.68;;;4.20;;
43998;SDS011;51319;52.162;5.302;2023-07-22T11:38:00;7.00;;;3.67;;
43998;SDS011;51319;52.162;5.302;2023-07-22T11:40:33;14.23;;;6.47;;
43998;SDS011;51319;52.162;5.302;2023-07-22T11:43:00;4.95;;;2.88;;
43998;SDS011;51319;52.162;5.302;2023-07-22T11:47:58;6.57;;;2.90;;
43998;SDS011;51319;52.162;5.302;2023-07-22T11:50:34;9.52;;;4.28;;
43998;SDS011;51319;52.162;5.302;2023-07-22T11:53:01;8.27;;;4.40;;
43998;SDS011;51319;52.162;5.302;2023-07-22T11:55:28;11.70;;;5.78;;
43998;SDS011;51319;52.162;5.302;2023-07-22T11:58:01;8.27;;;3.50;;
43998;SDS011;51319;52.162;5.302;2023-07-22T12:00:30;7.63;;;3.40;;
43998;SDS011;51319;52.162;5.302;2023-07-22T12:03:04;6.30;;;2.95;;
43998;SDS011;51319;52.162;5.302;2023-07-22T12:05:35;7.78;;;3.03;;
43998;SDS011;51319;52.162;5.302;2023-07-22T12:08:03;7.47;;;3.50;;
43998;SDS011;51319;52.162;5.302;2023-07-22T12:10:31;7.03;;;3.70;;
43998;SDS011;51319;52.162;5.302;2023-07-22T12:13:00;7.85;;;3.22;;
43998;SDS011;51319;52.162;5.302;2023-07-22T12:15:27;9.57;;;3.70;;
43998;SDS011;51319;52.162;5.302;2023-07-22T12:17:55;6.93;;;3.40;;
43998;SDS011;51319;52.162;5.302;2023-07-22T12:20:26;10.93;;;3.90;;
43998;SDS011;51319;52.162;5.302;2023-07-22T12:22:57;10.68;;;6.05;;
43998;SDS011;51319;52.162;5.302;2023-07-22T12:25:25;6.38;;;3.85;;
43998;SDS011;51319;52.162;5.302;2023-07-22T12:27:52;8.50;;;3.70;;
43998;SDS011;51319;52.162;5.302;2023-07-22T12:30:19;8.98;;;3.65;;
43998;SDS011;51319;52.162;5.302;2023-07-22T12:32:47;14.98;;;4.65;;
43998;SDS011;51319;52.162;5.302;2023-07-22T12:35:14;11.18;;;4.28;;
43998;SDS011;51319;52.162;5.302;2023-07-22T12:37:41;12.07;;;4.32;;
43998;SDS011;51319;52.162;5.302;2023-07-22T12:40:08;8.82;;;3.97;;
43998;SDS011;51319;52.162;5.302;2023-07-22T12:42:38;9.05;;;4.25;;
43998;SDS011;51319;52.162;5.302;2023-07-22T12:45:07;7.18;;;4.07;;
43998;SDS011;51319;52.162;5.302;2023-07-22T12:47:34;9.52;;;4.43;;
43998;SDS011;51319;52.162;5.302;2023-07-22T12:50:01;13.57;;;4.85;;
43998;SDS011;51319;52.162;5.302;2023-07-22T12:52:29;10.65;;;4.07;;
43998;SDS011;51319;52.162;5.302;2023-07-22T12:54:55;9.27;;;4.75;;
43998;SDS011;51319;52.162;5.302;2023-07-22T12:57:22;10.73;;;5.03;;
43998;SDS011;51319;52.162;5.302;2023-07-22T12:59:49;13.55;;;4.65;;
43998;SDS011;51319;52.162;5.302;2023-07-22T13:02:16;9.70;;;4.90;;
43998;SDS011;51319;52.162;5.302;2023-07-22T13:04:43;8.93;;;4.55;;
43998;SDS011;51319;52.162;5.302;2023-07-22T13:07:10;9.13;;;4.95;;
43998;SDS011;51319;52.162;5.302;2023-07-22T13:09:40;11.93;;;4.57;;
43998;SDS011;51319;52.162;5.302;2023-07-22T13:12:09;10.27;;;4.90;;
43998;SDS011;51319;52.162;5.302;2023-07-22T13:14:36;10.77;;;5.38;;
43998;SDS011;51319;52.162;5.302;2023-07-22T13:17:05;9.73;;;4.78;;
43998;SDS011;51319;52.162;5.302;2023-07-22T13:19:33;10.25;;;4.80;;
43998;SDS011;51319;52.162;5.302;2023-07-22T13:22:00;9.48;;;4.20;;
43998;SDS011;51319;52.162;5.302;2023-07-22T13:24:27;9.23;;;3.53;;
43998;SDS011;51319;52.162;5.302;2023-07-22T13:26:55;5.78;;;2.47;;
43998;SDS011;51319;52.162;5.302;2023-07-22T13:29:23;6.32;;;2.60;;
43998;SDS011;51319;52.162;5.302;2023-07-22T13:31:50;4.95;;;2.60;;
43998;SDS011;51319;52.162;5.302;2023-07-22T13:34:17;5.25;;;1.63;;
43998;SDS011;51319;52.162;5.302;2023-07-22T13:36:45;3.92;;;2.03;;
43998;SDS011;51319;52.162;5.302;2023-07-22T13:39:13;7.97;;;2.05;;
43998;SDS011;51319;52.162;5.302;2023-07-22T13:41:40;4.50;;;1.85;;
43998;SDS011;51319;52.162;5.302;2023-07-22T13:44:07;9.82;;;2.60;;
43998;SDS011;51319;52.162;5.302;2023-07-22T13:46:35;8.00;;;2.03;;
43998;SDS011;51319;52.162;5.302;2023-07-22T13:49:03;7.18;;;1.90;;
43998;SDS011;51319;52.162;5.302;2023-07-22T13:51:30;7.03;;;2.42;;
43998;SDS011;51319;52.162;5.302;2023-07-22T13:53:57;8.48;;;2.25;;
43998;SDS011;51319;52.162;5.302;2023-07-22T13:56:25;5.93;;;2.20;;
43998;SDS011;51319;52.162;5.302;2023-07-22T13:58:54;4.78;;;2.17;;
43998;SDS011;51319;52.162;5.302;2023-07-22T14:01:22;4.63;;;1.90;;
43998;SDS011;51319;52.162;5.302;2023-07-22T14:03:51;3.42;;;1.92;;
43998;SDS011;51319;52.162;5.302;2023-07-22T14:06:18;8.77;;;1.88;;
43998;SDS011;51319;52.162;5.302;2023-07-22T14:08:45;5.18;;;2.00;;
43998;SDS011;51319;52.162;5.302;2023-07-22T14:11:12;10.07;;;2.15;;
43998;SDS011;51319;52.162;5.302;2023-07-22T14:13:39;5.07;;;2.08;;
43998;SDS011;51319;52.162;5.302;2023-07-22T14:16:06;9.02;;;2.90;;
43998;SDS011;51319;52.162;5.302;2023-07-22T14:18:48;29.60;;;20.58;;
43998;SDS011;51319;52.162;5.302;2023-07-22T14:21:15;6.55;;;3.53;;
43998;SDS011;51319;52.162;5.302;2023-07-22T14:26:21;6.07;;;2.55;;
43998;SDS011;51319;52.162;5.302;2023-07-22T14:28:48;6.07;;;2.80;;
43998;SDS011;51319;52.162;5.302;2023-07-22T14:31:18;43.65;;;32.08;;
43998;SDS011;51319;52.162;5.302;2023-07-22T14:33:45;74.25;;;50.20;;
43998;SDS011;51319;52.162;5.302;2023-07-22T14:36:12;10.18;;;3.90;;
43998;SDS011;51319;52.162;5.302;2023-07-22T14:38:40;5.45;;;3.28;;
43998;SDS011;51319;52.162;5.302;2023-07-22T14:41:07;6.50;;;2.80;;
43998;SDS011;51319;52.162;5.302;2023-07-22T14:43:35;9.73;;;5.43;;
43998;SDS011;51319;52.162;5.302;2023-07-22T14:46:02;5.45;;;2.22;;
43998;SDS011;51319;52.162;5.302;2023-07-22T14:48:29;5.95;;;2.58;;
43998;SDS011;51319;52.162;5.302;2023-07-22T14:50:58;6.15;;;2.00;;
43998;SDS011;51319;52.162;5.302;2023-07-22T14:53:26;7.80;;;2.03;;